createdAt,value
2018-02-21T00:00:20.204Z,40.78
2018-02-21T00:02:48.695Z,39.28
2018-02-21T00:07:51.770Z,41.00
2018-02-21T00:10:20.157Z,41.08
2018-02-21T00:12:48.560Z,40.15
2018-02-21T00:15:16.947Z,42.60
2018-02-21T00:17:45.327Z,42.38
2018-02-21T00:20:13.721Z,41.78
2018-02-21T00:22:42.125Z,40.30
2018-02-21T00:25:10.507Z,39.05
2018-02-21T00:27:38.870Z,42.35
2018-02-21T00:30:07.351Z,42.85
2018-02-21T00:32:35.732Z,40.90
2018-02-21T00:35:04.193Z,40.28
2018-02-21T00:37:32.560Z,42.33
2018-02-21T00:40:00.983Z,41.10
2018-02-21T00:42:29.417Z,41.53
2018-02-21T00:44:57.796Z,41.70
2018-02-21T00:47:26.275Z,40.67
2018-02-21T00:49:54.658Z,43.13
2018-02-21T00:52:23.047Z,42.13
2018-02-21T00:54:51.426Z,43.92
2018-02-21T00:57:19.839Z,42.83
2018-02-21T00:59:48.215Z,44.10
2018-02-21T01:02:16.695Z,42.28
2018-02-21T01:04:45.136Z,43.75
2018-02-21T01:07:13.510Z,41.70
2018-02-21T01:09:41.889Z,41.40
2018-02-21T01:12:10.259Z,41.78
2018-02-21T01:14:38.786Z,44.67
2018-02-21T01:17:07.159Z,43.45
2018-02-21T01:19:35.557Z,42.97
2018-02-21T01:22:03.978Z,42.13
2018-02-21T01:24:32.350Z,43.28
2018-02-21T01:27:00.794Z,44.40
2018-02-21T01:29:29.181Z,43.15
2018-02-21T01:31:57.581Z,44.35
2018-02-21T01:34:25.950Z,42.20
2018-02-21T01:36:54.342Z,43.92
2018-02-21T01:39:22.802Z,40.50
2018-02-21T01:41:51.174Z,43.20
2018-02-21T01:44:19.579Z,43.60
2018-02-21T01:46:47.950Z,42.88
2018-02-21T01:49:16.331Z,44.78
2018-02-21T01:51:44.712Z,46.15
2018-02-21T01:54:13.081Z,44.28
2018-02-21T01:56:41.514Z,41.92
2018-02-21T01:59:09.880Z,44.05
2018-02-21T02:01:38.268Z,43.17
2018-02-21T02:04:06.656Z,43.22
2018-02-21T02:06:35.147Z,45.67
2018-02-21T02:09:03.582Z,43.60
2018-02-21T02:11:31.964Z,41.92
2018-02-21T02:14:00.336Z,41.97
2018-02-21T02:16:28.709Z,45.70
2018-02-21T02:18:57.082Z,43.87
2018-02-21T02:21:25.494Z,41.63
2018-02-21T02:23:53.865Z,41.30
2018-02-21T02:26:22.242Z,42.67
2018-02-21T02:28:50.655Z,44.58
2018-02-21T02:31:19.052Z,44.47
2018-02-21T02:33:47.668Z,44.08
2018-02-21T02:36:16.103Z,45.38
2018-02-21T02:38:56.064Z,42.38
2018-02-21T02:41:24.498Z,43.17
2018-02-21T02:43:52.878Z,41.67
2018-02-21T02:46:21.244Z,41.88
2018-02-21T02:48:49.611Z,41.00
2018-02-21T02:51:18.000Z,42.03
2018-02-21T02:53:46.381Z,41.60
2018-02-21T02:56:14.883Z,41.10
2018-02-21T02:58:43.260Z,41.63
2018-02-21T03:01:11.654Z,40.95
2018-02-21T03:03:40.104Z,39.55
2018-02-21T03:06:08.481Z,39.80
2018-02-21T03:08:36.859Z,39.60
2018-02-21T03:11:05.226Z,40.15
2018-02-21T03:13:33.631Z,41.53
2018-02-21T03:16:02.584Z,40.70
2018-02-21T03:18:30.983Z,40.17
2018-02-21T03:20:59.367Z,37.90
2018-02-21T03:23:27.739Z,38.80
2018-02-21T03:25:56.120Z,41.75
2018-02-21T03:28:24.507Z,42.85
2018-02-21T03:30:52.877Z,40.22
2018-02-21T03:33:21.252Z,39.88
2018-02-21T03:35:49.748Z,40.28
2018-02-21T03:38:18.132Z,44.30
2018-02-21T03:40:46.505Z,39.63
2018-02-21T03:43:14.878Z,40.47
2018-02-21T03:45:43.303Z,42.22
2018-02-21T03:48:11.683Z,41.88
2018-02-21T03:50:40.065Z,43.22
2018-02-21T03:53:08.458Z,42.85
2018-02-21T03:55:36.912Z,42.00
2018-02-21T03:58:05.296Z,43.78
2018-02-21T04:00:33.774Z,46.97
2018-02-21T04:03:02.174Z,46.10
2018-02-21T04:05:30.654Z,45.50
2018-02-21T04:07:59.078Z,44.15
2018-02-21T04:10:27.489Z,41.90
2018-02-21T04:12:56.048Z,45.40
2018-02-21T04:15:24.465Z,46.30
2018-02-21T04:17:52.875Z,46.72
2018-02-21T04:20:21.324Z,46.45
2018-02-21T04:22:49.720Z,46.47
2018-02-21T04:25:18.201Z,44.72
2018-02-21T04:27:46.625Z,44.63
2018-02-21T04:30:15.030Z,41.17
2018-02-21T04:32:43.592Z,41.85
2018-02-21T04:35:12.013Z,46.37
2018-02-21T04:37:40.482Z,46.10
2018-02-21T04:40:08.859Z,44.65
2018-02-21T04:42:37.289Z,42.75
2018-02-21T04:45:06.101Z,44.45
2018-02-21T04:47:34.488Z,44.00
2018-02-21T04:50:02.882Z,45.97
2018-02-21T04:52:31.427Z,45.15
2018-02-21T05:00:50.037Z,42.62
2018-02-21T05:03:18.528Z,45.75
2018-02-21T05:05:46.926Z,43.60
2018-02-21T05:08:15.378Z,43.55
2018-02-21T05:10:43.758Z,46.25
2018-02-21T05:13:12.158Z,44.20
2018-02-21T05:15:40.542Z,47.03
2018-02-21T05:18:08.921Z,46.47
2018-02-21T05:20:37.299Z,47.17
2018-02-21T05:23:06.087Z,46.22
2018-02-21T05:25:34.514Z,45.20
2018-02-21T05:28:02.888Z,44.42
2018-02-21T05:30:31.382Z,46.65
2018-02-21T05:32:59.799Z,47.78
2018-02-21T05:35:28.221Z,45.63
2018-02-21T05:37:56.674Z,45.67
2018-02-21T05:40:25.106Z,46.40
2018-02-21T05:42:53.506Z,44.83
2018-02-21T05:45:22.095Z,44.10
2018-02-21T05:47:50.514Z,43.25
2018-02-21T05:50:19.047Z,45.28
2018-02-21T05:52:47.586Z,45.22
2018-02-21T05:55:16.016Z,46.00
2018-02-21T05:57:44.435Z,45.65
2018-02-21T06:00:12.913Z,47.08
2018-02-21T06:02:41.406Z,47.60
2018-02-21T06:05:09.903Z,46.05
2018-02-21T06:07:38.242Z,42.75
2018-02-21T06:10:06.643Z,46.90
2018-02-21T06:12:35.117Z,47.40
2018-02-21T06:15:03.520Z,48.03
2018-02-21T06:17:32.132Z,46.28
2018-02-21T06:20:00.545Z,48.55
2018-02-21T06:22:28.957Z,44.20
2018-02-21T06:24:57.508Z,45.92
2018-02-21T06:27:25.876Z,44.45
2018-02-21T06:29:54.316Z,45.53
2018-02-21T06:32:22.725Z,44.65
2018-02-21T06:34:51.136Z,46.42
2018-02-21T06:37:19.597Z,46.58
2018-02-21T06:39:48.001Z,49.42
2018-02-21T06:42:16.401Z,44.10
2018-02-21T06:44:44.921Z,43.28
2018-02-21T06:47:13.351Z,44.78
2018-02-21T06:49:42.141Z,44.72
2018-02-21T06:52:10.722Z,45.47
2018-02-21T06:54:39.196Z,47.62
2018-02-21T06:57:07.616Z,45.35
2018-02-21T06:59:36.042Z,44.95
2018-02-21T07:02:04.520Z,43.08
2018-02-21T07:04:32.925Z,45.75
2018-02-21T07:07:01.312Z,44.45
2018-02-21T07:09:29.728Z,45.70
2018-02-21T07:11:58.119Z,44.42
2018-02-21T07:14:26.930Z,44.50
2018-02-21T07:16:55.360Z,44.28
2018-02-21T07:19:23.913Z,45.63
2018-02-21T07:21:52.346Z,42.40
2018-02-21T07:24:20.755Z,39.88
2018-02-21T07:26:49.291Z,39.40
2018-02-21T07:29:17.703Z,40.75
2018-02-21T07:31:46.148Z,40.97
2018-02-21T07:34:14.643Z,42.38
2018-02-21T07:36:43.116Z,41.33
2018-02-21T07:39:11.582Z,37.45
2018-02-21T07:41:39.996Z,40.58
2018-02-21T07:44:08.415Z,42.33
2018-02-21T07:46:36.812Z,42.90
2018-02-21T07:49:05.263Z,40.92
2018-02-21T07:51:33.993Z,40.47
2018-02-21T07:54:02.524Z,43.13
2018-02-21T07:56:30.947Z,40.25
2018-02-21T07:58:59.867Z,39.85
2018-02-21T08:01:28.271Z,39.15
2018-02-21T08:03:56.967Z,40.72
2018-02-21T08:06:25.518Z,42.55
2018-02-21T08:08:53.950Z,38.65
2018-02-21T08:11:22.431Z,39.97
2018-02-21T08:13:50.825Z,39.33
2018-02-21T08:16:19.352Z,36.97
2018-02-21T08:18:47.769Z,39.80
2018-02-21T08:21:16.169Z,37.40
2018-02-21T08:23:44.663Z,38.80
2018-02-21T08:26:13.295Z,36.75
2018-02-21T08:28:41.707Z,37.90
2018-02-21T08:31:10.106Z,36.10
2018-02-21T08:33:38.518Z,37.97
2018-02-21T08:36:06.929Z,38.20
2018-02-21T08:38:35.427Z,38.70
2018-02-21T08:41:03.836Z,37.80
2018-02-21T08:43:32.243Z,35.63
2018-02-21T08:46:00.694Z,39.35
2018-02-21T08:48:29.109Z,35.30
2018-02-21T08:50:57.689Z,36.70
2018-02-21T08:53:26.088Z,33.67
2018-02-21T08:55:54.486Z,34.05
2018-02-21T08:58:22.893Z,33.85
2018-02-21T09:00:51.299Z,33.00
2018-02-21T09:03:19.776Z,35.17
2018-02-21T09:05:48.193Z,33.30
2018-02-21T09:08:16.602Z,34.00
2018-02-21T09:10:45.028Z,32.40
2018-02-21T09:13:13.453Z,33.20
2018-02-21T09:18:16.375Z,31.90
2018-02-21T09:20:45.069Z,32.00
2018-02-21T09:23:13.488Z,33.27
2018-02-21T09:25:41.907Z,28.53
2018-02-21T09:28:10.838Z,30.83
2018-02-21T09:30:39.252Z,28.57
2018-02-21T09:33:07.757Z,27.83
2018-02-21T09:35:36.184Z,27.70
2018-02-21T09:38:04.621Z,27.07
2018-02-21T09:40:33.046Z,26.23
2018-02-21T09:43:01.473Z,27.90
2018-02-21T09:45:30.026Z,25.00
2018-02-21T09:47:58.439Z,26.97
2018-02-21T09:50:26.856Z,26.73
2018-02-21T09:52:55.254Z,27.60
2018-02-21T09:55:23.684Z,25.83
2018-02-21T09:57:52.147Z,25.60
2018-02-21T10:00:20.561Z,27.10
2018-02-21T10:02:48.950Z,26.37
2018-02-21T10:05:17.367Z,26.10
2018-02-21T10:07:45.766Z,24.93
2018-02-21T10:10:14.430Z,26.70
2018-02-21T10:12:42.835Z,25.73
2018-02-21T10:15:11.369Z,25.23
2018-02-21T10:17:39.843Z,27.57
2018-02-21T10:20:08.265Z,27.30
2018-02-21T10:22:36.726Z,28.27
2018-02-21T10:25:05.144Z,26.43
2018-02-21T10:27:33.555Z,27.20
2018-02-21T10:30:01.992Z,28.73
2018-02-21T10:32:30.451Z,28.60
2018-02-21T10:34:59.010Z,27.47
2018-02-21T10:37:27.419Z,28.30
2018-02-21T10:39:55.852Z,27.93
2018-02-21T10:42:24.259Z,29.27
2018-02-21T10:44:52.663Z,28.33
2018-02-21T10:47:21.116Z,27.00
2018-02-21T10:49:49.532Z,29.00
2018-02-21T10:52:17.964Z,30.40
2018-02-21T10:54:46.380Z,28.30
2018-02-21T10:57:14.853Z,28.50
2018-02-21T10:59:43.327Z,28.67
2018-02-21T11:02:11.731Z,29.60
2018-02-21T11:04:40.173Z,29.90
2018-02-21T11:07:08.647Z,27.57
2018-02-21T11:09:37.053Z,27.93
2018-02-21T11:12:05.534Z,28.03
2018-02-21T11:14:33.939Z,29.40
2018-02-21T11:17:02.350Z,26.17
2018-02-21T11:19:30.754Z,26.90
2018-02-21T11:21:59.205Z,24.13
2018-02-21T11:24:27.722Z,26.20
2018-02-21T11:26:56.249Z,26.12
2018-02-21T11:29:24.728Z,26.87
2018-02-21T11:31:53.129Z,31.70
2018-02-21T11:34:21.536Z,34.53
2018-02-21T11:36:50.046Z,30.42
2018-02-21T11:39:18.474Z,25.45
2018-02-21T11:41:46.954Z,27.65
2018-02-21T11:44:15.363Z,28.23
2018-02-21T11:46:43.777Z,26.70
2018-02-21T11:49:12.195Z,27.57
2018-02-21T11:51:40.622Z,26.08
2018-02-21T11:54:09.072Z,27.08
2018-02-21T11:56:37.466Z,23.80
2018-02-21T11:59:05.884Z,26.90
2018-02-21T12:01:34.438Z,24.20
2018-02-21T12:04:02.853Z,24.93
2018-02-21T12:06:31.325Z,25.70
2018-02-21T12:08:59.743Z,25.43
2018-02-21T12:11:28.198Z,25.17
2018-02-21T12:13:56.634Z,26.07
2018-02-21T12:16:25.052Z,26.77
2018-02-21T12:18:53.535Z,26.03
2018-02-21T12:21:22.011Z,27.10
2018-02-21T12:23:50.418Z,27.40
2018-02-21T12:26:18.826Z,27.80
2018-02-21T12:28:47.234Z,27.07
2018-02-21T12:31:15.699Z,26.83
2018-02-21T12:33:44.108Z,29.10
2018-02-21T12:36:12.527Z,26.90
2018-02-21T12:38:41.172Z,26.60
2018-02-21T12:41:16.121Z,24.43
2018-02-21T12:43:44.517Z,24.13
2018-02-21T12:46:12.934Z,28.00
2018-02-21T12:48:41.419Z,26.13
2018-02-21T12:51:09.867Z,29.70
2018-02-21T12:53:38.292Z,28.33
2018-02-21T12:56:06.738Z,24.33
2018-02-21T12:58:35.156Z,26.50
2018-02-21T13:01:03.720Z,28.40
2018-02-21T13:03:32.183Z,27.57
2018-02-21T13:06:00.595Z,25.20
2018-02-21T13:08:29.297Z,25.37
2018-02-21T13:10:57.839Z,25.53
2018-02-21T13:13:26.442Z,24.70
2018-02-21T13:15:55.149Z,24.90
2018-02-21T13:18:23.732Z,23.90
2018-02-21T13:20:52.077Z,23.47
2018-02-21T13:23:20.582Z,25.40
2018-02-21T13:25:49.189Z,27.53
2018-02-21T13:28:17.577Z,26.20
2018-02-21T13:30:46.000Z,27.10
2018-02-21T13:33:14.419Z,27.73
2018-02-21T13:35:42.827Z,25.30
2018-02-21T13:38:14.450Z,24.30
2018-02-21T13:40:42.870Z,24.33
2018-02-21T13:43:11.305Z,24.90
2018-02-21T13:45:39.695Z,23.80
2018-02-21T13:48:08.172Z,23.80
2018-02-21T13:50:36.650Z,23.83
2018-02-21T13:53:05.067Z,25.07
2018-02-21T13:55:33.490Z,24.07
2018-02-21T13:58:01.906Z,25.90
2018-02-21T14:00:30.453Z,25.00
2018-02-21T14:02:59.237Z,24.87
2018-02-21T14:05:27.643Z,26.83
2018-02-21T14:07:56.067Z,26.13
2018-02-21T14:10:24.509Z,26.62
2018-02-21T14:12:52.923Z,26.15
2018-02-21T14:15:21.375Z,25.88
2018-02-21T14:17:49.782Z,25.85
2018-02-21T14:20:18.185Z,26.42
2018-02-21T14:22:46.623Z,27.27
2018-02-21T14:25:15.022Z,24.20
2018-02-21T14:27:43.508Z,25.27
2018-02-21T14:30:11.942Z,26.37
2018-02-21T14:32:40.437Z,24.85
2018-02-21T14:35:08.850Z,24.85
2018-02-21T14:37:37.360Z,23.40
2018-02-21T14:40:05.928Z,24.10
2018-02-21T14:42:34.359Z,24.37
2018-02-21T14:45:02.979Z,25.12
2018-02-21T14:47:31.412Z,22.85
2018-02-21T14:49:59.816Z,23.55
2018-02-21T14:52:28.321Z,22.33
2018-02-21T14:54:56.745Z,23.48
2018-02-21T14:57:25.172Z,22.27
2018-02-21T14:59:53.600Z,22.17
2018-02-21T15:02:22.005Z,22.25
2018-02-21T15:04:50.502Z,22.80
2018-02-21T15:07:18.935Z,21.83
2018-02-21T15:09:47.364Z,22.62
2018-02-21T15:12:15.786Z,22.30
2018-02-21T15:14:44.220Z,23.00
2018-02-21T15:17:12.964Z,21.85
2018-02-21T15:19:41.372Z,20.58
2018-02-21T15:25:10.060Z,19.25
2018-02-21T15:27:38.467Z,21.05
2018-02-21T15:30:06.966Z,21.87
2018-02-21T15:32:35.421Z,20.45
2018-02-21T15:35:03.889Z,19.85
2018-02-21T15:37:32.342Z,21.23
2018-02-21T15:40:00.848Z,20.50
2018-02-21T15:42:29.250Z,21.08
2018-02-21T15:44:57.719Z,20.65
2018-02-21T15:47:26.231Z,20.00
2018-02-21T15:49:54.735Z,20.75
2018-02-21T15:52:23.159Z,20.10
2018-02-21T15:55:06.870Z,21.23
2018-02-21T15:57:35.254Z,19.20
2018-02-21T16:00:03.665Z,20.50
2018-02-21T16:02:32.081Z,21.75
2018-02-21T16:05:00.540Z,23.40
2018-02-21T16:07:29.094Z,20.80
2018-02-21T16:09:57.505Z,21.80
2018-02-21T16:12:25.950Z,21.58
2018-02-21T16:14:54.361Z,21.20
2018-02-21T16:17:22.790Z,21.92
2018-02-21T16:19:51.266Z,21.35
2018-02-21T16:22:19.725Z,21.50
2018-02-21T16:24:48.168Z,21.67
2018-02-21T16:27:16.593Z,21.30
2018-02-21T16:29:45.007Z,21.67
2018-02-21T16:32:13.508Z,21.02
2018-02-21T16:34:41.910Z,21.98
2018-02-21T16:37:10.358Z,21.08
2018-02-21T16:39:38.820Z,22.37
2018-02-21T16:42:07.255Z,21.17
2018-02-21T16:44:36.015Z,22.15
2018-02-21T16:47:04.435Z,23.20
2018-02-21T16:49:32.849Z,22.52
2018-02-21T16:52:01.271Z,22.55
2018-02-21T16:54:29.680Z,23.17
2018-02-21T16:56:58.159Z,22.50
2018-02-21T16:59:26.586Z,21.70
2018-02-21T17:01:55.496Z,22.58
2018-02-21T17:04:23.911Z,23.90
2018-02-21T17:06:52.318Z,25.33
2018-02-21T17:09:20.740Z,25.98
2018-02-21T17:11:50.006Z,25.33
2018-02-21T17:14:18.577Z,23.70
2018-02-21T17:16:46.978Z,25.02
2018-02-21T17:19:15.396Z,25.50
2018-02-21T17:21:43.849Z,26.75
2018-02-21T17:24:12.242Z,25.55
2018-02-21T17:26:40.671Z,23.15
2018-02-21T17:29:10.991Z,25.02
2018-02-21T17:31:39.479Z,26.25
2018-02-21T17:34:07.889Z,24.17
2018-02-21T17:36:36.300Z,25.20
2018-02-21T17:39:04.845Z,24.30
2018-02-21T17:41:33.316Z,27.40
2018-02-21T17:44:01.768Z,26.48
2018-02-21T17:46:30.147Z,26.00
2018-02-21T17:48:58.618Z,24.40
2018-02-21T17:51:27.051Z,27.10
2018-02-21T17:53:55.515Z,26.62
2018-02-21T17:56:23.978Z,26.20
2018-02-21T17:58:52.383Z,25.30
2018-02-21T18:01:20.788Z,26.05
2018-02-21T18:03:49.198Z,24.35
2018-02-21T18:06:17.688Z,26.00
2018-02-21T18:08:46.118Z,26.73
2018-02-21T18:11:14.538Z,22.15
2018-02-21T18:13:42.970Z,25.98
2018-02-21T18:16:12.289Z,26.40
2018-02-21T18:18:40.801Z,25.90
2018-02-21T18:21:09.217Z,23.23
2018-02-21T18:23:37.835Z,26.83
2018-02-21T18:26:08.040Z,24.52
2018-02-21T18:28:36.565Z,25.25
2018-02-21T18:31:05.321Z,24.25
2018-02-21T18:33:34.224Z,24.00
2018-02-21T18:36:02.688Z,22.25
2018-02-21T18:38:32.328Z,23.02
2018-02-21T18:41:04.858Z,26.10
2018-02-21T18:43:33.303Z,25.00
2018-02-21T18:46:01.726Z,22.67
2018-02-21T18:48:30.123Z,22.33
2018-02-21T18:50:58.537Z,23.02
2018-02-21T18:53:26.952Z,24.33
2018-02-21T18:55:55.418Z,22.40
2018-02-21T18:58:23.830Z,21.55
2018-02-21T19:00:52.247Z,22.08
2018-02-21T19:03:20.682Z,22.20
2018-02-21T19:05:49.137Z,22.37
2018-02-21T19:10:51.730Z,21.70
2018-02-21T19:13:20.170Z,22.77
2018-02-21T19:15:48.647Z,22.48
2018-02-21T19:18:17.061Z,20.42
2018-02-21T19:20:45.480Z,17.95
2018-02-21T19:23:14.801Z,21.02
2018-02-21T19:25:43.297Z,20.67
2018-02-21T19:28:11.874Z,20.42
2018-02-21T19:30:40.454Z,22.33
2018-02-21T19:33:08.873Z,20.65
2018-02-21T19:35:37.283Z,21.37
2018-02-21T19:38:05.714Z,21.42
2018-02-21T19:40:34.213Z,20.50
2018-02-21T19:43:02.603Z,20.58
2018-02-21T19:45:31.021Z,20.65
2018-02-21T19:47:59.440Z,23.85
2018-02-21T19:50:27.986Z,23.15
2018-02-21T19:52:56.548Z,23.17
2018-02-21T19:55:25.945Z,22.58
2018-02-21T19:57:55.267Z,20.20
2018-02-21T20:00:23.656Z,23.17
2018-02-21T20:02:52.069Z,19.83
2018-02-21T20:05:20.579Z,20.42
2018-02-21T20:07:49.203Z,20.65
2018-02-21T20:10:17.644Z,20.40
2018-02-21T20:12:46.960Z,20.95
2018-02-21T20:15:15.370Z,20.98
2018-02-21T20:17:44.166Z,20.73
2018-02-21T20:20:12.640Z,20.92
2018-02-21T20:22:41.191Z,20.83
2018-02-21T20:25:09.618Z,20.95
2018-02-21T20:27:38.042Z,18.80
2018-02-21T20:30:06.623Z,21.08
2018-02-21T20:32:35.071Z,20.33
2018-02-21T20:35:03.489Z,19.55
2018-02-21T20:37:31.974Z,22.65
2018-02-21T20:40:00.416Z,20.90
2018-02-21T20:42:28.894Z,19.67
2018-02-21T20:44:57.520Z,20.80
2018-02-21T20:47:26.022Z,20.88
2018-02-21T20:49:54.456Z,20.67
2018-02-21T20:52:23.214Z,21.60
2018-02-21T20:54:52.084Z,18.50
2018-02-21T20:57:20.946Z,20.08
2018-02-21T20:59:49.482Z,21.08
2018-02-21T21:02:17.897Z,20.52
2018-02-21T21:04:46.313Z,22.25
2018-02-21T21:07:14.798Z,20.20
2018-02-21T21:09:43.430Z,20.23
2018-02-21T21:12:12.188Z,18.85
2018-02-21T21:14:40.739Z,20.35
2018-02-21T21:17:09.147Z,18.50
2018-02-21T21:19:37.646Z,18.60
2018-02-21T21:22:06.049Z,21.77
2018-02-21T21:24:34.454Z,18.98
2018-02-21T21:27:02.908Z,19.67
2018-02-21T21:29:31.332Z,20.12
2018-02-21T21:31:59.989Z,19.70
2018-02-21T21:34:28.440Z,19.95
2018-02-21T21:36:56.871Z,19.98
2018-02-21T21:39:25.316Z,19.58
2018-02-21T21:41:54.721Z,21.20
2018-02-21T21:44:23.373Z,20.05
2018-02-21T21:46:52.503Z,19.20
2018-02-21T21:49:21.035Z,20.10
2018-02-21T21:51:51.865Z,18.80
2018-02-21T21:54:20.326Z,19.75
2018-02-21T21:56:48.863Z,20.35
2018-02-21T21:59:17.266Z,21.65
2018-02-21T22:01:45.651Z,20.30
2018-02-21T22:04:14.075Z,19.17
2018-02-21T22:06:42.484Z,18.92
2018-02-21T22:09:10.968Z,18.98
2018-02-21T22:11:39.353Z,20.08
2018-02-21T22:14:07.831Z,20.08
2018-02-21T22:16:36.257Z,18.50
2018-02-21T22:19:04.662Z,18.77
2018-02-21T22:21:33.137Z,20.10
2018-02-21T22:24:01.542Z,19.92
2018-02-21T22:26:29.947Z,19.12
2018-02-21T22:28:58.360Z,19.40
2018-02-21T22:31:26.756Z,20.55
2018-02-21T22:33:55.225Z,19.25
2018-02-21T22:36:23.665Z,18.45
2018-02-21T22:38:52.049Z,19.95
2018-02-21T22:41:20.458Z,21.85
2018-02-21T22:43:48.858Z,18.40
2018-02-21T22:46:18.509Z,19.00
2018-02-21T22:48:46.914Z,20.20
2018-02-21T22:51:15.335Z,21.05
2018-02-21T22:53:43.752Z,19.98
2018-02-21T22:56:12.162Z,19.55
2018-02-21T22:58:40.655Z,19.95
2018-02-21T23:01:09.125Z,20.40
2018-02-21T23:03:37.643Z,21.35
2018-02-21T23:06:06.082Z,19.73
2018-02-21T23:08:34.493Z,20.30
2018-02-21T23:11:02.970Z,21.90
2018-02-21T23:13:31.373Z,20.58
2018-02-21T23:15:59.781Z,18.60
2018-02-21T23:18:28.178Z,19.42
2018-02-21T23:20:56.574Z,19.52
2018-02-21T23:23:25.200Z,20.35
2018-02-21T23:25:53.611Z,17.70
2018-02-21T23:28:21.995Z,19.35
2018-02-21T23:30:50.416Z,20.65
2018-02-21T23:33:18.908Z,18.95
2018-02-21T23:35:47.395Z,19.70
2018-02-21T23:38:15.797Z,19.30
2018-02-21T23:40:44.199Z,18.65
2018-02-21T23:43:12.700Z,20.30
2018-02-21T23:45:41.172Z,20.50
2018-02-21T23:48:09.650Z,18.23
2018-02-21T23:50:38.056Z,19.90
2018-02-21T23:53:06.481Z,20.73
2018-02-21T23:55:34.876Z,19.20
2018-02-21T23:58:03.268Z,18.73
